createdAt,value
2018-03-21T00:01:42.695Z,95848.81
2018-03-21T00:06:52.044Z,95849.69
2018-03-21T00:09:24.878Z,95855.03
2018-03-21T00:11:56.891Z,95852.64
2018-03-21T00:14:27.560Z,95852.40
2018-03-21T00:16:59.779Z,95852.19
2018-03-21T00:19:33.002Z,95855.92
2018-03-21T00:22:04.443Z,95854.80
2018-03-21T00:24:37.377Z,95855.63
2018-03-21T00:27:10.877Z,95859.53
2018-03-21T00:29:43.780Z,95859.41
2018-03-21T00:32:16.313Z,95857.86
2018-03-21T00:34:48.813Z,95859.02
2018-03-21T00:37:19.827Z,95854.50
2018-03-21T00:39:52.084Z,95857.64
2018-03-21T00:45:02.150Z,95857.17
2018-03-21T00:47:52.419Z,95860.55
2018-03-21T00:53:02.822Z,95859.41
2018-03-21T00:58:13.921Z,95865.31
2018-03-21T01:03:22.209Z,95864.45
2018-03-21T01:06:13.830Z,95870.05
2018-03-21T01:08:46.333Z,95862.09
2018-03-21T01:11:18.419Z,95871.98
2018-03-21T01:13:56.061Z,95866.19
2018-03-21T01:16:28.057Z,95868.28
2018-03-21T01:19:00.776Z,95867.77
2018-03-21T01:21:34.731Z,95866.55
2018-03-21T01:24:07.974Z,95867.33
2018-03-21T01:26:40.598Z,95861.44
2018-03-21T01:29:36.037Z,95860.88
2018-03-21T01:32:08.688Z,95863.05
2018-03-21T01:34:45.534Z,95863.50
2018-03-21T01:39:52.999Z,95861.22
2018-03-21T01:45:01.633Z,95864.20
2018-03-21T01:50:10.917Z,95869.19
2018-03-21T01:55:43.686Z,95865.09
2018-03-21T02:00:52.315Z,95863.55
2018-03-21T02:06:01.517Z,95864.41
2018-03-21T02:13:50.529Z,95869.05
2018-03-21T02:16:22.904Z,95865.13
2018-03-21T02:18:55.376Z,95867.05
2018-03-21T02:21:50.948Z,95866.09
2018-03-21T02:27:03.426Z,95874.77
2018-03-21T02:29:36.262Z,95873.25
2018-03-21T02:32:08.985Z,95871.73
2018-03-21T02:34:41.722Z,95876.17
2018-03-21T02:39:52.118Z,95871.02
2018-03-21T02:45:02.673Z,95879.96
2018-03-21T02:50:20.372Z,95878.78
2018-03-21T02:52:53.113Z,95876.78
2018-03-21T02:55:35.119Z,95878.27
2018-03-21T02:58:08.157Z,95877.36
2018-03-21T03:00:40.975Z,95877.61
2018-03-21T03:03:12.829Z,95874.15
2018-03-21T03:05:48.579Z,95884.73
2018-03-21T03:08:24.875Z,95877.77
2018-03-21T03:10:57.345Z,95879.52
2018-03-21T03:13:30.277Z,95881.74
2018-03-21T03:16:02.854Z,95880.74
2018-03-21T03:18:51.779Z,95884.29
2018-03-21T03:21:49.952Z,95888.95
2018-03-21T03:24:29.056Z,95889.00
2018-03-21T03:27:01.612Z,95886.95
2018-03-21T03:32:08.712Z,95887.66
2018-03-21T03:34:49.752Z,95884.16
2018-03-21T03:37:21.748Z,95888.83
2018-03-21T03:39:56.042Z,95884.78
2018-03-21T03:45:03.240Z,95888.45
2018-03-21T03:47:35.852Z,95886.93
2018-03-21T03:50:08.127Z,95896.95
2018-03-21T03:52:42.109Z,95892.57
2018-03-21T03:55:23.952Z,95895.09
2018-03-21T03:57:55.473Z,95901.33
2018-03-21T04:03:05.610Z,95906.35
2018-03-21T04:10:52.655Z,95912.13
2018-03-21T04:16:03.995Z,95915.33
2018-03-21T04:21:31.920Z,95909.86
2018-03-21T04:24:03.979Z,95911.05
2018-03-21T04:26:40.346Z,95917.81
2018-03-21T04:31:51.475Z,95916.91
2018-03-21T04:34:25.104Z,95917.13
2018-03-21T04:36:57.653Z,95917.48
2018-03-21T04:42:06.697Z,95925.36
2018-03-21T04:44:51.688Z,95923.73
2018-03-21T04:47:28.288Z,95925.31
2018-03-21T04:50:01.304Z,95925.63
2018-03-21T04:52:32.007Z,95927.55
2018-03-21T04:55:03.780Z,95933.88
2018-03-21T05:00:16.803Z,95936.70
2018-03-21T05:05:38.461Z,95947.89
2018-03-21T05:08:10.875Z,95950.02
2018-03-21T05:10:44.028Z,95951.56
2018-03-21T05:13:22.138Z,95956.79
2018-03-21T05:15:54.281Z,95955.28
2018-03-21T05:18:35.815Z,95960.09
2018-03-21T05:21:08.135Z,95966.82
2018-03-21T05:23:47.838Z,95962.92
2018-03-21T05:26:23.235Z,95961.17
2018-03-21T05:28:55.374Z,95964.89
2018-03-21T05:31:26.960Z,95971.80
2018-03-21T05:36:45.063Z,95981.30
2018-03-21T05:39:18.350Z,95980.59
2018-03-21T05:41:51.030Z,95987.86
2018-03-21T05:44:23.516Z,95991.33
2018-03-21T05:46:52.591Z,95993.33
2018-03-21T05:49:21.664Z,95996.25
2018-03-21T05:51:51.239Z,95993.48
2018-03-21T05:54:20.316Z,96000.05
2018-03-21T05:56:50.459Z,96008.30
2018-03-21T06:01:57.711Z,96011.27
2018-03-21T06:04:27.397Z,96016.97
2018-03-21T06:06:56.476Z,96020.79
2018-03-21T06:09:46.986Z,96024.72
2018-03-21T06:14:54.380Z,96037.82
2018-03-21T06:19:59.579Z,96044.39
2018-03-21T06:22:30.397Z,96047.13
2018-03-21T06:24:59.455Z,96049.70
2018-03-21T06:27:30.687Z,96052.69
2018-03-21T06:29:59.767Z,96055.23
2018-03-21T06:32:29.805Z,96066.72
2018-03-21T06:34:58.839Z,96067.83
2018-03-21T06:37:30.463Z,96070.53
2018-03-21T06:39:59.553Z,96075.98
2018-03-21T06:42:28.661Z,96079.05
2018-03-21T06:44:57.836Z,96078.22
2018-03-21T06:50:02.977Z,96079.16
2018-03-21T06:52:36.771Z,96080.10
2018-03-21T06:55:05.864Z,96079.45
2018-03-21T06:57:34.878Z,96083.75
2018-03-21T07:00:04.174Z,96090.56
2018-03-21T07:02:45.588Z,96091.32
2018-03-21T07:05:31.718Z,96098.27
2018-03-21T07:08:00.760Z,96101.31
2018-03-21T07:10:31.122Z,96105.00
2018-03-21T07:13:00.177Z,96107.92
2018-03-21T07:15:49.314Z,96108.47
2018-03-21T07:18:20.059Z,96112.61
2018-03-21T07:20:49.104Z,96114.27
2018-03-21T07:23:18.655Z,96114.81
2018-03-21T07:25:48.919Z,96122.44
2018-03-21T07:28:18.003Z,96121.87
2018-03-21T07:30:48.807Z,96119.33
2018-03-21T07:33:21.285Z,96122.13
2018-03-21T07:35:51.050Z,96126.81
2018-03-21T07:38:22.240Z,96129.66
2018-03-21T07:40:52.158Z,96128.98
2018-03-21T07:43:24.055Z,96132.70
2018-03-21T07:45:55.455Z,96134.38
2018-03-21T07:48:25.118Z,96136.70
2018-03-21T07:50:56.837Z,96136.95
2018-03-21T07:56:09.311Z,96146.71
2018-03-21T08:01:17.222Z,96153.83
2018-03-21T08:03:47.682Z,96158.97
2018-03-21T08:06:19.792Z,96159.37
2018-03-21T08:08:48.809Z,96162.88
2018-03-21T08:13:55.369Z,96166.09
2018-03-21T08:16:24.494Z,96168.14
2018-03-21T08:18:57.230Z,96172.10
2018-03-21T08:21:26.267Z,96170.62
2018-03-21T08:24:01.438Z,96170.42
2018-03-21T08:26:35.287Z,96176.34
2018-03-21T08:29:13.868Z,96178.85
2018-03-21T08:31:43.602Z,96182.58
2018-03-21T08:34:14.220Z,96184.28
2018-03-21T08:36:45.934Z,96181.49
2018-03-21T08:39:16.419Z,96188.45
2018-03-21T08:41:47.738Z,96189.66
2018-03-21T08:44:17.682Z,96198.16
2018-03-21T08:46:49.044Z,96193.47
2018-03-21T08:49:21.444Z,96193.20
2018-03-21T08:54:27.609Z,96197.98
2018-03-21T08:57:00.543Z,96199.34
2018-03-21T08:59:29.601Z,96209.94
2018-03-21T09:04:33.811Z,96206.14
2018-03-21T09:07:04.316Z,96208.22
2018-03-21T09:09:33.355Z,96205.69
2018-03-21T09:12:03.217Z,96208.45
2018-03-21T09:14:32.419Z,96211.84
2018-03-21T09:19:36.690Z,96220.19
2018-03-21T09:22:05.917Z,96220.57
2018-03-21T09:24:35.879Z,96219.79
2018-03-21T09:27:07.946Z,96217.39
2018-03-21T09:29:38.682Z,96214.52
2018-03-21T09:32:07.734Z,96213.45
2018-03-21T09:34:37.327Z,96212.69
2018-03-21T09:39:41.575Z,96217.68
2018-03-21T09:42:11.521Z,96214.07
2018-03-21T09:44:47.301Z,96213.81
2018-03-21T09:47:16.716Z,96216.14
2018-03-21T09:49:45.756Z,96222.47
2018-03-21T09:52:15.494Z,96225.32
2018-03-21T09:54:49.324Z,96221.77
2018-03-21T09:57:20.199Z,96230.64
2018-03-21T09:59:53.394Z,96226.02
2018-03-21T10:02:22.415Z,96229.37
2018-03-21T10:04:55.151Z,96232.59
2018-03-21T10:07:27.441Z,96234.02
2018-03-21T10:10:08.293Z,96235.67
2018-03-21T10:12:41.571Z,96234.20
2018-03-21T10:15:11.700Z,96236.79
2018-03-21T10:17:40.753Z,96234.16
2018-03-21T10:20:11.342Z,96227.22
2018-03-21T10:22:40.905Z,96234.81
2018-03-21T10:27:50.147Z,96236.52
2018-03-21T10:30:20.075Z,96235.91
2018-03-21T10:32:49.831Z,96237.44
2018-03-21T10:40:33.984Z,96233.41
2018-03-21T10:43:03.536Z,96238.61
2018-03-21T10:45:34.536Z,96238.08
2018-03-21T10:48:05.401Z,96234.73
2018-03-21T10:53:18.188Z,96235.98
2018-03-21T10:58:28.065Z,96231.32
2018-03-21T11:00:58.309Z,96233.33
2018-03-21T11:03:29.798Z,96234.06
2018-03-21T11:05:59.671Z,96227.33
2018-03-21T11:08:31.965Z,96223.85
2018-03-21T11:11:03.672Z,96224.09
2018-03-21T11:13:34.597Z,96223.80
2018-03-21T11:16:06.248Z,96220.61
2018-03-21T11:18:38.248Z,96221.53
2018-03-21T11:21:11.525Z,96224.35
2018-03-21T11:23:41.304Z,96221.03
2018-03-21T11:26:12.955Z,96219.35
2018-03-21T11:28:41.966Z,96220.50
2018-03-21T11:31:13.603Z,96211.34
2018-03-21T11:33:44.099Z,96215.38
2018-03-21T11:36:15.059Z,96216.12
2018-03-21T11:38:44.119Z,96211.78
2018-03-21T11:41:14.304Z,96222.34
2018-03-21T11:43:43.338Z,96223.30
2018-03-21T11:46:12.549Z,96222.58
2018-03-21T11:48:43.053Z,96224.45
2018-03-21T11:51:12.147Z,96229.64
2018-03-21T11:56:16.426Z,96209.77
2018-03-21T11:58:47.651Z,96207.59
2018-03-21T12:01:16.836Z,96207.69
2018-03-21T12:06:23.472Z,96200.55
2018-03-21T12:08:53.251Z,96197.88
2018-03-21T12:11:22.308Z,96198.59
2018-03-21T12:13:54.825Z,96207.84
2018-03-21T12:16:24.071Z,96205.70
2018-03-21T12:18:54.243Z,96212.23
2018-03-21T12:21:23.442Z,96214.61
2018-03-21T12:23:57.064Z,96217.06
2018-03-21T12:26:26.256Z,96220.20
2018-03-21T12:28:55.280Z,96221.24
2018-03-21T12:34:00.897Z,96217.31
2018-03-21T12:36:33.752Z,96216.94
2018-03-21T12:39:05.604Z,96221.04
2018-03-21T12:41:35.741Z,96229.09
2018-03-21T12:44:07.871Z,96228.11
2018-03-21T12:46:36.903Z,96225.58
2018-03-21T12:49:09.011Z,96225.70
2018-03-21T12:51:38.688Z,96225.11
2018-03-21T12:54:08.859Z,96219.10
2018-03-21T12:56:40.676Z,96218.08
2018-03-21T12:59:11.918Z,96222.51
2018-03-21T13:01:44.531Z,96222.02
2018-03-21T13:04:13.658Z,96219.55
2018-03-21T13:06:43.035Z,96219.72
2018-03-21T13:09:14.054Z,96221.91
2018-03-21T13:11:45.181Z,96217.98
2018-03-21T13:14:19.152Z,96224.02
2018-03-21T13:16:49.270Z,96223.57
2018-03-21T13:19:18.973Z,96219.56
2018-03-21T13:21:48.000Z,96217.41
2018-03-21T13:24:17.474Z,96218.12
2018-03-21T13:26:46.517Z,96216.34
2018-03-21T13:29:15.646Z,96214.44
2018-03-21T13:31:45.565Z,96209.94
2018-03-21T13:34:17.806Z,96213.08
2018-03-21T13:36:50.864Z,96208.00
2018-03-21T13:39:19.975Z,96210.64
2018-03-21T13:41:49.078Z,96210.63
2018-03-21T13:44:18.876Z,96206.05
2018-03-21T13:46:48.081Z,96204.34
2018-03-21T13:49:17.102Z,96203.96
2018-03-21T13:51:47.022Z,96208.33
2018-03-21T13:54:16.209Z,96211.61
2018-03-21T13:56:46.840Z,96206.08
2018-03-21T13:59:17.071Z,96211.39
2018-03-21T14:01:46.527Z,96210.63
2018-03-21T14:04:15.542Z,96206.20
2018-03-21T14:06:44.966Z,96208.81
2018-03-21T14:09:15.395Z,96209.86
2018-03-21T14:11:46.552Z,96212.50
2018-03-21T14:14:19.081Z,96208.31
2018-03-21T14:16:51.140Z,96209.35
2018-03-21T14:19:24.389Z,96213.25
2018-03-21T14:21:53.718Z,96218.00
2018-03-21T14:24:23.751Z,96216.28
2018-03-21T14:26:52.823Z,96213.63
2018-03-21T14:29:22.024Z,96216.08
2018-03-21T14:34:32.902Z,96212.00
2018-03-21T14:37:03.339Z,96215.00
2018-03-21T14:39:32.375Z,96211.65
2018-03-21T14:42:01.428Z,96214.27
2018-03-21T14:44:30.525Z,96213.02
2018-03-21T14:47:01.991Z,96206.53
2018-03-21T14:49:35.439Z,96204.36
2018-03-21T14:52:04.895Z,96204.01
2018-03-21T14:54:36.823Z,96209.48
2018-03-21T14:59:49.585Z,96215.06
2018-03-21T15:02:21.954Z,96215.70
2018-03-21T15:04:53.210Z,96215.87
2018-03-21T15:07:25.003Z,96218.25
2018-03-21T15:09:56.317Z,96218.07
2018-03-21T15:12:27.933Z,96223.43
2018-03-21T15:14:59.711Z,96228.09
2018-03-21T15:17:31.393Z,96228.23
2018-03-21T15:20:03.144Z,96229.75
2018-03-21T15:25:12.704Z,96228.17
2018-03-21T15:27:45.327Z,96224.89
2018-03-21T15:30:16.197Z,96229.27
2018-03-21T15:32:45.887Z,96229.51
2018-03-21T15:35:21.172Z,96222.64
2018-03-21T15:37:50.257Z,96231.59
2018-03-21T15:40:20.408Z,96231.57
2018-03-21T15:42:51.142Z,96233.89
2018-03-21T15:45:21.104Z,96238.13
2018-03-21T15:47:50.186Z,96232.89
2018-03-21T15:50:21.978Z,96235.96
2018-03-21T15:55:28.259Z,96236.23
2018-03-21T15:57:59.399Z,96237.81
2018-03-21T16:00:32.115Z,96243.81
2018-03-21T16:03:01.134Z,96244.71
2018-03-21T16:05:34.114Z,96242.86
2018-03-21T16:08:07.324Z,96245.25
2018-03-21T16:10:36.547Z,96244.60
2018-03-21T16:13:05.597Z,96246.59
2018-03-21T16:15:34.659Z,96250.50
2018-03-21T16:18:03.709Z,96252.84
2018-03-21T16:23:07.957Z,96260.33
2018-03-21T16:25:40.991Z,96253.91
2018-03-21T16:28:12.078Z,96260.05
2018-03-21T16:30:42.293Z,96258.10
2018-03-21T16:33:11.330Z,96265.02
2018-03-21T16:35:44.389Z,96267.16
2018-03-21T16:38:18.063Z,96265.96
2018-03-21T16:40:47.091Z,96267.63
2018-03-21T16:43:23.936Z,96273.33
2018-03-21T16:45:53.812Z,96272.07
2018-03-21T16:48:23.065Z,96276.27
2018-03-21T16:50:52.969Z,96272.50
2018-03-21T16:53:24.103Z,96275.14
2018-03-21T16:55:53.431Z,96276.00
2018-03-21T16:58:24.571Z,96276.89
2018-03-21T17:00:55.339Z,96283.92
2018-03-21T17:03:30.139Z,96285.16
2018-03-21T17:05:59.177Z,96285.27
2018-03-21T17:08:32.030Z,96288.17
2018-03-21T17:11:01.328Z,96291.33
2018-03-21T17:13:30.591Z,96295.44
2018-03-21T17:16:02.230Z,96300.95
2018-03-21T17:18:32.974Z,96301.89
2018-03-21T17:21:08.464Z,96303.27
2018-03-21T17:23:40.284Z,96306.73
2018-03-21T17:26:11.040Z,96308.91
2018-03-21T17:28:43.333Z,96311.06
2018-03-21T17:31:14.886Z,96312.59
2018-03-21T17:33:43.918Z,96315.36
2018-03-21T17:36:16.655Z,96310.81
2018-03-21T17:38:45.702Z,96311.61
2018-03-21T17:41:14.818Z,96311.93
2018-03-21T17:43:43.942Z,96314.56
2018-03-21T17:46:13.171Z,96320.52
2018-03-21T17:48:45.080Z,96324.47
2018-03-21T17:51:15.024Z,96325.91
2018-03-21T17:56:23.486Z,96324.67
2018-03-21T17:58:55.782Z,96325.66
2018-03-21T18:01:26.837Z,96321.50
2018-03-21T18:03:59.323Z,96321.59
2018-03-21T18:06:32.855Z,96325.63
2018-03-21T18:09:06.588Z,96326.84
2018-03-21T18:11:39.367Z,96327.10
2018-03-21T18:14:09.403Z,96336.89
2018-03-21T18:16:42.179Z,96332.09
2018-03-21T18:19:15.176Z,96337.20
2018-03-21T18:24:19.443Z,96333.56
2018-03-21T18:26:53.772Z,96335.69
2018-03-21T18:29:22.895Z,96337.93
2018-03-21T18:32:02.592Z,96338.98
2018-03-21T18:34:34.759Z,96342.56
2018-03-21T18:37:03.820Z,96339.22
2018-03-21T18:39:35.106Z,96332.98
2018-03-21T18:44:54.087Z,96327.13
2018-03-21T18:47:23.131Z,96325.34
2018-03-21T18:52:35.807Z,96322.33
2018-03-21T18:55:08.880Z,96319.63
2018-03-21T18:57:38.261Z,96328.33
2018-03-21T19:02:47.570Z,96325.33
2018-03-21T19:05:20.819Z,96326.16
2018-03-21T19:07:52.150Z,96327.42
2018-03-21T19:10:27.601Z,96333.88
2018-03-21T19:13:03.911Z,96335.01
2018-03-21T19:15:34.188Z,96332.56
2018-03-21T19:18:03.244Z,96335.66
2018-03-21T19:20:32.499Z,96340.56
2018-03-21T19:23:32.563Z,96342.23
2018-03-21T19:26:04.016Z,96343.70
2018-03-21T19:31:33.265Z,96340.38
2018-03-21T19:34:17.694Z,96335.58
2018-03-21T19:36:49.170Z,96334.30
2018-03-21T19:39:18.484Z,96334.69
2018-03-21T19:41:49.853Z,96339.94
2018-03-21T19:47:06.774Z,96329.99
2018-03-21T19:49:36.164Z,96335.95
2018-03-21T19:52:07.981Z,96330.70
2018-03-21T19:54:37.735Z,96330.80
2018-03-21T19:59:56.076Z,96338.96
2018-03-21T20:02:26.038Z,96337.36
2018-03-21T20:07:52.982Z,96329.27
2018-03-21T20:13:04.419Z,96331.00
2018-03-21T20:15:33.458Z,96346.16
2018-03-21T20:18:05.071Z,96338.87
2018-03-21T20:20:34.540Z,96341.73
2018-03-21T20:23:12.857Z,96337.84
2018-03-21T20:25:44.557Z,96340.88
2018-03-21T20:28:19.768Z,96335.36
2018-03-21T20:33:30.501Z,96333.52
2018-03-21T20:36:04.155Z,96336.52
2018-03-21T20:38:33.499Z,96334.68
2018-03-21T20:41:21.940Z,96334.32
2018-03-21T20:43:52.993Z,96338.09
2018-03-21T20:46:22.965Z,96332.08
2018-03-21T20:49:01.121Z,96326.08
2018-03-21T20:51:30.266Z,96319.75
2018-03-21T20:54:01.379Z,96321.50
2018-03-21T20:56:30.435Z,96314.81
2018-03-21T20:58:59.567Z,96313.50
2018-03-21T21:01:28.790Z,96311.29
2018-03-21T21:06:35.876Z,96311.66
2018-03-21T21:09:15.780Z,96313.75
2018-03-21T21:11:49.006Z,96308.81
2018-03-21T21:16:57.968Z,96316.01
2018-03-21T21:19:28.139Z,96314.92
2018-03-21T21:21:58.490Z,96312.21
2018-03-21T21:24:28.482Z,96309.83
2018-03-21T21:26:57.527Z,96311.55
2018-03-21T21:29:26.738Z,96312.58
2018-03-21T21:34:36.388Z,96308.42
2018-03-21T21:37:09.751Z,96302.38
2018-03-21T21:39:38.821Z,96304.01
2018-03-21T21:42:07.900Z,96297.69
2018-03-21T21:44:36.999Z,96299.27
2018-03-21T21:50:03.248Z,96294.27
2018-03-21T21:52:32.314Z,96304.23
2018-03-21T21:55:02.591Z,96308.72
2018-03-21T21:57:33.644Z,96304.11
2018-03-21T22:00:02.728Z,96301.64
2018-03-21T22:05:10.021Z,96301.76
2018-03-21T22:07:39.083Z,96296.34
2018-03-21T22:10:08.269Z,96293.53
2018-03-21T22:12:37.329Z,96286.60
2018-03-21T22:15:06.397Z,96284.17
2018-03-21T22:17:36.937Z,96284.08
2018-03-21T22:20:06.079Z,96282.03
2018-03-21T22:22:35.144Z,96275.63
2018-03-21T22:25:06.147Z,96271.24
2018-03-21T22:27:36.240Z,96267.69
2018-03-21T22:30:05.481Z,96262.38
2018-03-21T22:32:35.480Z,96268.03
2018-03-21T22:35:15.256Z,96267.47
2018-03-21T22:37:44.349Z,96262.09
2018-03-21T22:40:19.003Z,96254.11
2018-03-21T22:42:49.063Z,96248.31
2018-03-21T22:45:35.821Z,96244.47
2018-03-21T22:48:19.824Z,96240.68
2018-03-21T22:50:48.974Z,96247.80
2018-03-21T22:53:36.339Z,96247.36
2018-03-21T22:56:19.830Z,96248.45
2018-03-21T22:58:49.114Z,96238.56
2018-03-21T23:01:18.279Z,96240.51
2018-03-21T23:03:51.419Z,96239.41
2018-03-21T23:09:09.031Z,96239.12
2018-03-21T23:11:38.157Z,96242.23
2018-03-21T23:14:07.484Z,96242.03
2018-03-21T23:16:36.814Z,96244.20
2018-03-21T23:21:41.080Z,96239.23
2018-03-21T23:24:10.970Z,96237.97
2018-03-21T23:26:40.064Z,96236.84
2018-03-21T23:29:09.159Z,96234.35
2018-03-21T23:34:14.445Z,96236.73
2018-03-21T23:36:43.689Z,96237.34
2018-03-21T23:39:12.723Z,96233.89
2018-03-21T23:41:45.659Z,96234.55
2018-03-21T23:44:15.004Z,96237.77
2018-03-21T23:47:01.094Z,96231.94
2018-03-21T23:49:34.315Z,96232.30
2018-03-21T23:52:03.411Z,96229.56
2018-03-21T23:54:37.216Z,96228.65
2018-03-21T23:57:06.295Z,96232.20
2018-03-21T23:59:44.186Z,96225.66
